Forside
METAR-TAF:

METAR-TAF

Lufthavne :

Minocqua / Woodruff, Wisconsin, USA

Breddekreds: 45-56N, længdekreds: 089-44W, højde: 496 m

Aktuelle vejr

Denne rapport blev lavet for 10 minutter siden, kl. 19:15 UTC
Vind 9 kt fra sydsydvest
Temperatur 6°C
Fugtighed 49%
Tryk 1013 hPa
Sigt: 16.1 km
skyfri

METAR: KARV 221915Z AUTO 21009KT 10SM CLR 06/M04 A2991 RMK AO2 T00601045

Tid: 13:25 (19:25 UTC)


TAF: fraværende

Vejrobservationer og prognoser fra mere end 4000 lufthavne (METAR og TAF).

De gule og røde prikker repræsenterer de meteorologiske stationer.

Flyt musen over at se navnet på stationen.

Så klik over at se vejr observationer og prognoser.

At skifte det kort: Klik på de grønne knapper med et sort kors for at zoome ind; på den grønne knap med en bindestreg for at zoome ud; eller på de grønne pile for tilstødende kort.


METAR-TAF: